sensor_id;sensor_type;location;lat;lon;timestamp;P1;durP1;ratioP1;P2;durP2;ratioP2
33104;SDS011;19476;51.448;6.674;2023-04-07T00:01:48;6.60;;;4.30;;
33104;SDS011;19476;51.448;6.674;2023-04-07T00:04:14;7.75;;;4.70;;
33104;SDS011;19476;51.448;6.674;2023-04-07T00:06:40;7.93;;;5.10;;
33104;SDS011;19476;51.448;6.674;2023-04-07T00:09:08;8.95;;;5.50;;
33104;SDS011;19476;51.448;6.674;2023-04-07T00:11:35;8.13;;;5.57;;
33104;SDS011;19476;51.448;6.674;2023-04-07T00:14:01;7.68;;;5.20;;
33104;SDS011;19476;51.448;6.674;2023-04-07T00:16:27;9.27;;;5.82;;
33104;SDS011;19476;51.448;6.674;2023-04-07T00:18:53;7.63;;;5.10;;
33104;SDS011;19476;51.448;6.674;2023-04-07T00:21:18;7.15;;;4.22;;
33104;SDS011;19476;51.448;6.674;2023-04-07T00:23:44;6.43;;;4.05;;
33104;SDS011;19476;51.448;6.674;2023-04-07T00:26:11;5.40;;;3.35;;
33104;SDS011;19476;51.448;6.674;2023-04-07T00:28:37;6.07;;;4.00;;
33104;SDS011;19476;51.448;6.674;2023-04-07T00:31:03;6.00;;;3.88;;
33104;SDS011;19476;51.448;6.674;2023-04-07T00:33:29;5.78;;;3.85;;
33104;SDS011;19476;51.448;6.674;2023-04-07T00:35:55;7.53;;;4.63;;
33104;SDS011;19476;51.448;6.674;2023-04-07T00:38:22;5.80;;;4.15;;
33104;SDS011;19476;51.448;6.674;2023-04-07T00:40:49;5.45;;;3.78;;
33104;SDS011;19476;51.448;6.674;2023-04-07T00:43:14;6.40;;;3.88;;
33104;SDS011;19476;51.448;6.674;2023-04-07T00:45:40;6.40;;;3.78;;
33104;SDS011;19476;51.448;6.674;2023-04-07T00:48:07;7.00;;;3.65;;
33104;SDS011;19476;51.448;6.674;2023-04-07T00:50:34;7.03;;;4.38;;
33104;SDS011;19476;51.448;6.674;2023-04-07T00:52:59;7.90;;;4.07;;
33104;SDS011;19476;51.448;6.674;2023-04-07T00:55:26;7.13;;;3.88;;
33104;SDS011;19476;51.448;6.674;2023-04-07T00:57:52;7.68;;;4.30;;
33104;SDS011;19476;51.448;6.674;2023-04-07T01:00:18;6.63;;;4.25;;
33104;SDS011;19476;51.448;6.674;2023-04-07T01:02:45;7.43;;;4.63;;
33104;SDS011;19476;51.448;6.674;2023-04-07T01:05:34;6.57;;;4.47;;
33104;SDS011;19476;51.448;6.674;2023-04-07T01:08:18;7.47;;;4.97;;
33104;SDS011;19476;51.448;6.674;2023-04-07T01:15:59;7.88;;;5.10;;
33104;SDS011;19476;51.448;6.674;2023-04-07T01:18:32;8.80;;;5.60;;
33104;SDS011;19476;51.448;6.674;2023-04-07T01:21:02;8.75;;;5.57;;
33104;SDS011;19476;51.448;6.674;2023-04-07T01:26:23;9.32;;;5.70;;
33104;SDS011;19476;51.448;6.674;2023-04-07T01:31:40;10.13;;;6.18;;
33104;SDS011;19476;51.448;6.674;2023-04-07T01:34:10;9.15;;;5.82;;
33104;SDS011;19476;51.448;6.674;2023-04-07T01:36:38;9.23;;;5.97;;
33104;SDS011;19476;51.448;6.674;2023-04-07T01:39:05;11.38;;;6.55;;
33104;SDS011;19476;51.448;6.674;2023-04-07T01:41:32;9.63;;;6.35;;
33104;SDS011;19476;51.448;6.674;2023-04-07T01:43:58;11.10;;;6.65;;
33104;SDS011;19476;51.448;6.674;2023-04-07T01:46:26;10.57;;;6.60;;
33104;SDS011;19476;51.448;6.674;2023-04-07T01:48:52;11.82;;;6.75;;
33104;SDS011;19476;51.448;6.674;2023-04-07T01:51:20;11.68;;;6.97;;
33104;SDS011;19476;51.448;6.674;2023-04-07T01:53:46;11.52;;;7.18;;
33104;SDS011;19476;51.448;6.674;2023-04-07T01:56:13;10.75;;;6.75;;
33104;SDS011;19476;51.448;6.674;2023-04-07T01:58:39;13.10;;;8.15;;
33104;SDS011;19476;51.448;6.674;2023-04-07T02:01:05;12.38;;;7.85;;
33104;SDS011;19476;51.448;6.674;2023-04-07T02:06:10;14.18;;;8.27;;
33104;SDS011;19476;51.448;6.674;2023-04-07T02:08:41;12.75;;;7.70;;
33104;SDS011;19476;51.448;6.674;2023-04-07T02:11:11;13.45;;;8.15;;
33104;SDS011;19476;51.448;6.674;2023-04-07T02:13:38;12.98;;;8.15;;
33104;SDS011;19476;51.448;6.674;2023-04-07T02:16:06;14.18;;;7.93;;
33104;SDS011;19476;51.448;6.674;2023-04-07T02:18:33;14.23;;;8.90;;
33104;SDS011;19476;51.448;6.674;2023-04-07T02:21:01;13.05;;;8.30;;
33104;SDS011;19476;51.448;6.674;2023-04-07T02:23:29;11.52;;;7.43;;
33104;SDS011;19476;51.448;6.674;2023-04-07T02:25:57;15.18;;;8.77;;
33104;SDS011;19476;51.448;6.674;2023-04-07T02:28:23;12.02;;;7.88;;
33104;SDS011;19476;51.448;6.674;2023-04-07T02:30:49;13.57;;;7.07;;
33104;SDS011;19476;51.448;6.674;2023-04-07T02:33:15;12.20;;;7.20;;
33104;SDS011;19476;51.448;6.674;2023-04-07T02:35:41;11.73;;;7.55;;
33104;SDS011;19476;51.448;6.674;2023-04-07T02:38:06;14.30;;;7.13;;
33104;SDS011;19476;51.448;6.674;2023-04-07T02:40:32;11.55;;;7.32;;
33104;SDS011;19476;51.448;6.674;2023-04-07T02:42:57;10.07;;;6.13;;
33104;SDS011;19476;51.448;6.674;2023-04-07T02:45:23;11.75;;;7.07;;
33104;SDS011;19476;51.448;6.674;2023-04-07T02:47:49;10.75;;;6.57;;
33104;SDS011;19476;51.448;6.674;2023-04-07T02:50:15;11.50;;;6.70;;
33104;SDS011;19476;51.448;6.674;2023-04-07T02:52:41;12.02;;;6.65;;
33104;SDS011;19476;51.448;6.674;2023-04-07T02:55:07;10.07;;;6.28;;
33104;SDS011;19476;51.448;6.674;2023-04-07T02:57:33;9.80;;;6.10;;
33104;SDS011;19476;51.448;6.674;2023-04-07T02:59:59;10.73;;;6.43;;
33104;SDS011;19476;51.448;6.674;2023-04-07T03:02:25;10.57;;;6.18;;
33104;SDS011;19476;51.448;6.674;2023-04-07T03:04:51;9.10;;;5.50;;
33104;SDS011;19476;51.448;6.674;2023-04-07T03:07:17;10.52;;;6.03;;
33104;SDS011;19476;51.448;6.674;2023-04-07T03:09:43;10.00;;;6.72;;
33104;SDS011;19476;51.448;6.674;2023-04-07T03:12:09;9.80;;;5.95;;
33104;SDS011;19476;51.448;6.674;2023-04-07T03:14:36;10.82;;;6.35;;
33104;SDS011;19476;51.448;6.674;2023-04-07T03:17:02;11.98;;;7.07;;
33104;SDS011;19476;51.448;6.674;2023-04-07T03:19:28;10.15;;;6.45;;
33104;SDS011;19476;51.448;6.674;2023-04-07T03:21:54;10.18;;;5.90;;
33104;SDS011;19476;51.448;6.674;2023-04-07T03:24:20;9.05;;;5.57;;
33104;SDS011;19476;51.448;6.674;2023-04-07T03:26:46;10.98;;;5.60;;
33104;SDS011;19476;51.448;6.674;2023-04-07T03:29:11;9.57;;;5.80;;
33104;SDS011;19476;51.448;6.674;2023-04-07T03:31:37;8.98;;;6.00;;
33104;SDS011;19476;51.448;6.674;2023-04-07T03:34:03;9.27;;;5.13;;
33104;SDS011;19476;51.448;6.674;2023-04-07T03:36:29;10.52;;;6.05;;
33104;SDS011;19476;51.448;6.674;2023-04-07T03:38:56;8.98;;;5.10;;
33104;SDS011;19476;51.448;6.674;2023-04-07T03:41:22;9.45;;;5.80;;
33104;SDS011;19476;51.448;6.674;2023-04-07T03:43:48;8.95;;;5.43;;
33104;SDS011;19476;51.448;6.674;2023-04-07T03:46:14;8.55;;;5.20;;
33104;SDS011;19476;51.448;6.674;2023-04-07T03:48:40;8.43;;;5.18;;
33104;SDS011;19476;51.448;6.674;2023-04-07T03:51:06;9.48;;;5.15;;
33104;SDS011;19476;51.448;6.674;2023-04-07T03:53:32;8.77;;;4.90;;
33104;SDS011;19476;51.448;6.674;2023-04-07T03:55:57;7.55;;;4.72;;
33104;SDS011;19476;51.448;6.674;2023-04-07T03:58:23;9.95;;;5.20;;
33104;SDS011;19476;51.448;6.674;2023-04-07T04:00:49;7.78;;;4.60;;
33104;SDS011;19476;51.448;6.674;2023-04-07T04:03:15;8.70;;;4.20;;
33104;SDS011;19476;51.448;6.674;2023-04-07T04:05:40;12.60;;;5.47;;
33104;SDS011;19476;51.448;6.674;2023-04-07T04:08:06;10.52;;;5.00;;
33104;SDS011;19476;51.448;6.674;2023-04-07T04:10:32;9.90;;;4.35;;
33104;SDS011;19476;51.448;6.674;2023-04-07T04:12:58;8.05;;;4.68;;
33104;SDS011;19476;51.448;6.674;2023-04-07T04:15:30;8.75;;;5.07;;
33104;SDS011;19476;51.448;6.674;2023-04-07T04:17:56;8.07;;;4.80;;
33104;SDS011;19476;51.448;6.674;2023-04-07T04:20:22;9.75;;;4.95;;
33104;SDS011;19476;51.448;6.674;2023-04-07T04:22:48;9.00;;;4.65;;
33104;SDS011;19476;51.448;6.674;2023-04-07T04:25:15;8.48;;;4.63;;
33104;SDS011;19476;51.448;6.674;2023-04-07T04:27:41;9.95;;;4.75;;
33104;SDS011;19476;51.448;6.674;2023-04-07T04:30:07;8.75;;;4.90;;
33104;SDS011;19476;51.448;6.674;2023-04-07T04:32:33;8.25;;;4.82;;
33104;SDS011;19476;51.448;6.674;2023-04-07T04:34:59;8.90;;;4.50;;
33104;SDS011;19476;51.448;6.674;2023-04-07T04:37:25;8.57;;;4.32;;
33104;SDS011;19476;51.448;6.674;2023-04-07T04:39:50;7.90;;;4.40;;
33104;SDS011;19476;51.448;6.674;2023-04-07T04:42:16;8.48;;;5.07;;
33104;SDS011;19476;51.448;6.674;2023-04-07T04:44:42;8.88;;;5.25;;
33104;SDS011;19476;51.448;6.674;2023-04-07T04:47:08;7.82;;;4.55;;
33104;SDS011;19476;51.448;6.674;2023-04-07T04:49:34;9.57;;;4.80;;
33104;SDS011;19476;51.448;6.674;2023-04-07T04:52:00;8.73;;;4.57;;
33104;SDS011;19476;51.448;6.674;2023-04-07T04:54:26;8.00;;;4.75;;
33104;SDS011;19476;51.448;6.674;2023-04-07T04:56:51;7.88;;;4.85;;
33104;SDS011;19476;51.448;6.674;2023-04-07T04:59:17;7.63;;;4.72;;
33104;SDS011;19476;51.448;6.674;2023-04-07T05:01:43;8.48;;;4.68;;
33104;SDS011;19476;51.448;6.674;2023-04-07T05:04:09;8.52;;;4.03;;
33104;SDS011;19476;51.448;6.674;2023-04-07T05:06:34;9.48;;;4.57;;
33104;SDS011;19476;51.448;6.674;2023-04-07T05:09:00;7.97;;;4.20;;
33104;SDS011;19476;51.448;6.674;2023-04-07T05:11:26;8.27;;;4.78;;
33104;SDS011;19476;51.448;6.674;2023-04-07T05:13:52;7.30;;;4.20;;
33104;SDS011;19476;51.448;6.674;2023-04-07T05:16:17;8.02;;;4.43;;
33104;SDS011;19476;51.448;6.674;2023-04-07T05:18:43;6.75;;;4.00;;
33104;SDS011;19476;51.448;6.674;2023-04-07T05:21:09;7.72;;;4.32;;
33104;SDS011;19476;51.448;6.674;2023-04-07T05:23:35;8.55;;;4.80;;
33104;SDS011;19476;51.448;6.674;2023-04-07T05:26:00;8.27;;;5.10;;
33104;SDS011;19476;51.448;6.674;2023-04-07T05:28:26;6.68;;;3.78;;
33104;SDS011;19476;51.448;6.674;2023-04-07T05:30:52;8.20;;;4.53;;
33104;SDS011;19476;51.448;6.674;2023-04-07T05:33:18;10.23;;;4.57;;
33104;SDS011;19476;51.448;6.674;2023-04-07T05:35:44;7.90;;;4.25;;
33104;SDS011;19476;51.448;6.674;2023-04-07T05:38:10;7.97;;;4.55;;
33104;SDS011;19476;51.448;6.674;2023-04-07T05:40:36;8.38;;;4.13;;
33104;SDS011;19476;51.448;6.674;2023-04-07T05:43:02;7.60;;;4.30;;
33104;SDS011;19476;51.448;6.674;2023-04-07T05:45:27;8.05;;;4.35;;
33104;SDS011;19476;51.448;6.674;2023-04-07T05:47:53;10.52;;;4.75;;
33104;SDS011;19476;51.448;6.674;2023-04-07T05:50:19;8.32;;;4.03;;
33104;SDS011;19476;51.448;6.674;2023-04-07T05:52:45;8.35;;;4.88;;
33104;SDS011;19476;51.448;6.674;2023-04-07T05:55:10;8.90;;;4.53;;
33104;SDS011;19476;51.448;6.674;2023-04-07T05:57:36;8.05;;;4.00;;
33104;SDS011;19476;51.448;6.674;2023-04-07T06:00:02;7.43;;;4.43;;
33104;SDS011;19476;51.448;6.674;2023-04-07T06:02:28;8.75;;;4.20;;
33104;SDS011;19476;51.448;6.674;2023-04-07T06:04:54;7.50;;;4.63;;
33104;SDS011;19476;51.448;6.674;2023-04-07T06:07:20;8.18;;;4.25;;
33104;SDS011;19476;51.448;6.674;2023-04-07T06:09:46;6.85;;;3.50;;
33104;SDS011;19476;51.448;6.674;2023-04-07T06:12:12;8.32;;;3.95;;
33104;SDS011;19476;51.448;6.674;2023-04-07T06:14:39;6.60;;;3.30;;
33104;SDS011;19476;51.448;6.674;2023-04-07T06:17:05;6.45;;;3.30;;
33104;SDS011;19476;51.448;6.674;2023-04-07T06:19:31;6.80;;;3.40;;
33104;SDS011;19476;51.448;6.674;2023-04-07T06:21:57;8.73;;;4.50;;
33104;SDS011;19476;51.448;6.674;2023-04-07T06:24:23;8.82;;;4.45;;
33104;SDS011;19476;51.448;6.674;2023-04-07T06:26:49;8.30;;;3.70;;
33104;SDS011;19476;51.448;6.674;2023-04-07T06:29:16;8.10;;;3.78;;
33104;SDS011;19476;51.448;6.674;2023-04-07T06:31:42;7.18;;;3.67;;
33104;SDS011;19476;51.448;6.674;2023-04-07T06:34:08;6.57;;;3.10;;
33104;SDS011;19476;51.448;6.674;2023-04-07T06:36:34;6.55;;;3.42;;
33104;SDS011;19476;51.448;6.674;2023-04-07T06:38:59;7.72;;;3.85;;
33104;SDS011;19476;51.448;6.674;2023-04-07T06:41:25;8.52;;;3.67;;
33104;SDS011;19476;51.448;6.674;2023-04-07T06:43:51;6.72;;;3.40;;
33104;SDS011;19476;51.448;6.674;2023-04-07T06:46:17;6.45;;;2.92;;
33104;SDS011;19476;51.448;6.674;2023-04-07T06:48:43;5.82;;;2.92;;
33104;SDS011;19476;51.448;6.674;2023-04-07T06:51:09;6.05;;;3.17;;
33104;SDS011;19476;51.448;6.674;2023-04-07T06:53:35;6.32;;;3.17;;
33104;SDS011;19476;51.448;6.674;2023-04-07T06:58:36;6.70;;;2.88;;
33104;SDS011;19476;51.448;6.674;2023-04-07T07:01:02;7.13;;;3.50;;
33104;SDS011;19476;51.448;6.674;2023-04-07T07:03:29;7.85;;;3.92;;
33104;SDS011;19476;51.448;6.674;2023-04-07T07:05:56;5.15;;;2.67;;
33104;SDS011;19476;51.448;6.674;2023-04-07T07:08:25;5.80;;;3.05;;
33104;SDS011;19476;51.448;6.674;2023-04-07T07:10:52;6.60;;;3.83;;
33104;SDS011;19476;51.448;6.674;2023-04-07T07:13:18;6.03;;;3.08;;
33104;SDS011;19476;51.448;6.674;2023-04-07T07:15:47;6.70;;;3.30;;
33104;SDS011;19476;51.448;6.674;2023-04-07T07:18:13;6.22;;;3.00;;
33104;SDS011;19476;51.448;6.674;2023-04-07T07:20:39;6.50;;;3.55;;
33104;SDS011;19476;51.448;6.674;2023-04-07T07:23:05;7.78;;;3.58;;
33104;SDS011;19476;51.448;6.674;2023-04-07T07:25:31;9.82;;;4.50;;
33104;SDS011;19476;51.448;6.674;2023-04-07T07:27:57;9.20;;;4.07;;
33104;SDS011;19476;51.448;6.674;2023-04-07T07:30:23;7.68;;;4.13;;
33104;SDS011;19476;51.448;6.674;2023-04-07T07:32:49;10.05;;;4.63;;
33104;SDS011;19476;51.448;6.674;2023-04-07T07:35:15;10.55;;;5.00;;
33104;SDS011;19476;51.448;6.674;2023-04-07T07:37:41;9.88;;;4.35;;
33104;SDS011;19476;51.448;6.674;2023-04-07T07:40:08;6.90;;;3.75;;
33104;SDS011;19476;51.448;6.674;2023-04-07T07:42:34;9.32;;;5.60;;
33104;SDS011;19476;51.448;6.674;2023-04-07T07:45:01;10.50;;;4.88;;
33104;SDS011;19476;51.448;6.674;2023-04-07T07:47:27;9.50;;;4.90;;
33104;SDS011;19476;51.448;6.674;2023-04-07T07:49:52;8.10;;;4.20;;
33104;SDS011;19476;51.448;6.674;2023-04-07T07:52:18;11.07;;;5.00;;
33104;SDS011;19476;51.448;6.674;2023-04-07T07:54:45;9.98;;;5.03;;
33104;SDS011;19476;51.448;6.674;2023-04-07T07:57:12;9.15;;;4.45;;
33104;SDS011;19476;51.448;6.674;2023-04-07T07:59:37;7.97;;;4.47;;
33104;SDS011;19476;51.448;6.674;2023-04-07T08:02:05;10.25;;;5.43;;
33104;SDS011;19476;51.448;6.674;2023-04-07T08:04:32;8.52;;;4.53;;
33104;SDS011;19476;51.448;6.674;2023-04-07T08:06:58;11.15;;;5.25;;
33104;SDS011;19476;51.448;6.674;2023-04-07T08:09:23;9.25;;;4.95;;
33104;SDS011;19476;51.448;6.674;2023-04-07T08:11:50;9.77;;;4.97;;
33104;SDS011;19476;51.448;6.674;2023-04-07T08:14:16;7.78;;;4.22;;
33104;SDS011;19476;51.448;6.674;2023-04-07T08:16:42;8.77;;;4.88;;
33104;SDS011;19476;51.448;6.674;2023-04-07T08:19:08;8.48;;;3.88;;
33104;SDS011;19476;51.448;6.674;2023-04-07T08:21:35;7.18;;;4.15;;
33104;SDS011;19476;51.448;6.674;2023-04-07T08:24:00;8.88;;;4.25;;
33104;SDS011;19476;51.448;6.674;2023-04-07T08:26:26;9.13;;;4.90;;
33104;SDS011;19476;51.448;6.674;2023-04-07T08:28:52;9.50;;;4.18;;
33104;SDS011;19476;51.448;6.674;2023-04-07T08:31:18;9.27;;;4.68;;
33104;SDS011;19476;51.448;6.674;2023-04-07T08:33:44;8.07;;;4.15;;
33104;SDS011;19476;51.448;6.674;2023-04-07T08:36:10;9.10;;;4.38;;
33104;SDS011;19476;51.448;6.674;2023-04-07T08:38:36;8.15;;;4.50;;
33104;SDS011;19476;51.448;6.674;2023-04-07T08:41:03;9.43;;;5.28;;
33104;SDS011;19476;51.448;6.674;2023-04-07T08:43:35;9.00;;;4.43;;
33104;SDS011;19476;51.448;6.674;2023-04-07T08:46:03;10.43;;;4.90;;
33104;SDS011;19476;51.448;6.674;2023-04-07T08:48:30;10.27;;;4.75;;
33104;SDS011;19476;51.448;6.674;2023-04-07T08:51:03;9.75;;;4.68;;
33104;SDS011;19476;51.448;6.674;2023-04-07T08:56:01;12.55;;;5.68;;
33104;SDS011;19476;51.448;6.674;2023-04-07T08:58:30;18.63;;;10.60;;
33104;SDS011;19476;51.448;6.674;2023-04-07T09:00:56;12.00;;;6.47;;
33104;SDS011;19476;51.448;6.674;2023-04-07T09:03:22;13.52;;;7.80;;
33104;SDS011;19476;51.448;6.674;2023-04-07T09:05:50;10.32;;;5.88;;
33104;SDS011;19476;51.448;6.674;2023-04-07T09:08:16;13.50;;;5.35;;
33104;SDS011;19476;51.448;6.674;2023-04-07T09:10:42;11.43;;;5.95;;
33104;SDS011;19476;51.448;6.674;2023-04-07T09:13:08;10.55;;;5.53;;
33104;SDS011;19476;51.448;6.674;2023-04-07T09:15:33;13.95;;;6.80;;
33104;SDS011;19476;51.448;6.674;2023-04-07T09:18:00;11.27;;;5.53;;
33104;SDS011;19476;51.448;6.674;2023-04-07T09:20:26;13.25;;;5.50;;
33104;SDS011;19476;51.448;6.674;2023-04-07T09:22:52;11.55;;;6.07;;
33104;SDS011;19476;51.448;6.674;2023-04-07T09:25:19;11.65;;;6.60;;
33104;SDS011;19476;51.448;6.674;2023-04-07T09:30:24;13.18;;;6.15;;
33104;SDS011;19476;51.448;6.674;2023-04-07T09:32:50;10.07;;;4.90;;
33104;SDS011;19476;51.448;6.674;2023-04-07T09:35:16;10.45;;;6.00;;
33104;SDS011;19476;51.448;6.674;2023-04-07T09:37:42;9.18;;;5.35;;
33104;SDS011;19476;51.448;6.674;2023-04-07T09:40:08;12.02;;;5.57;;
33104;SDS011;19476;51.448;6.674;2023-04-07T09:42:35;10.65;;;6.07;;
33104;SDS011;19476;51.448;6.674;2023-04-07T09:45:09;9.23;;;5.30;;
33104;SDS011;19476;51.448;6.674;2023-04-07T09:47:36;7.60;;;4.55;;
33104;SDS011;19476;51.448;6.674;2023-04-07T09:50:02;9.75;;;5.32;;
33104;SDS011;19476;51.448;6.674;2023-04-07T09:52:50;9.00;;;5.15;;
33104;SDS011;19476;51.448;6.674;2023-04-07T09:55:21;9.57;;;5.03;;
33104;SDS011;19476;51.448;6.674;2023-04-07T09:57:49;11.70;;;5.40;;
33104;SDS011;19476;51.448;6.674;2023-04-07T10:00:16;8.75;;;4.80;;
33104;SDS011;19476;51.448;6.674;2023-04-07T10:02:42;7.75;;;4.45;;
33104;SDS011;19476;51.448;6.674;2023-04-07T10:05:08;9.38;;;4.63;;
33104;SDS011;19476;51.448;6.674;2023-04-07T10:07:34;10.05;;;4.55;;
33104;SDS011;19476;51.448;6.674;2023-04-07T10:10:04;9.23;;;4.50;;
33104;SDS011;19476;51.448;6.674;2023-04-07T10:12:32;7.80;;;3.90;;
33104;SDS011;19476;51.448;6.674;2023-04-07T10:14:59;7.35;;;3.72;;
33104;SDS011;19476;51.448;6.674;2023-04-07T10:17:26;6.75;;;3.88;;
33104;SDS011;19476;51.448;6.674;2023-04-07T10:19:53;7.35;;;4.13;;
33104;SDS011;19476;51.448;6.674;2023-04-07T10:22:21;9.35;;;3.90;;
33104;SDS011;19476;51.448;6.674;2023-04-07T10:25:07;6.47;;;3.55;;
33104;SDS011;19476;51.448;6.674;2023-04-07T10:30:04;7.40;;;3.75;;
33104;SDS011;19476;51.448;6.674;2023-04-07T10:32:48;10.07;;;4.53;;
33104;SDS011;19476;51.448;6.674;2023-04-07T10:35:14;7.28;;;3.25;;
33104;SDS011;19476;51.448;6.674;2023-04-07T10:37:42;5.43;;;3.28;;
33104;SDS011;19476;51.448;6.674;2023-04-07T10:40:34;6.68;;;3.70;;
33104;SDS011;19476;51.448;6.674;2023-04-07T10:43:01;8.00;;;3.72;;
33104;SDS011;19476;51.448;6.674;2023-04-07T10:48:18;5.57;;;3.72;;
33104;SDS011;19476;51.448;6.674;2023-04-07T10:50:45;6.20;;;3.60;;
33104;SDS011;19476;51.448;6.674;2023-04-07T10:53:32;5.85;;;3.13;;
33104;SDS011;19476;51.448;6.674;2023-04-07T10:56:01;5.57;;;3.47;;
33104;SDS011;19476;51.448;6.674;2023-04-07T10:58:30;7.90;;;3.83;;
33104;SDS011;19476;51.448;6.674;2023-04-07T11:03:32;5.35;;;3.30;;
33104;SDS011;19476;51.448;6.674;2023-04-07T11:06:09;7.05;;;3.47;;
33104;SDS011;19476;51.448;6.674;2023-04-07T11:08:42;6.95;;;3.55;;
33104;SDS011;19476;51.448;6.674;2023-04-07T11:11:10;6.15;;;3.90;;
33104;SDS011;19476;51.448;6.674;2023-04-07T11:13:44;6.15;;;3.72;;
33104;SDS011;19476;51.448;6.674;2023-04-07T11:16:14;8.23;;;3.58;;
33104;SDS011;19476;51.448;6.674;2023-04-07T11:18:44;6.05;;;3.55;;
33104;SDS011;19476;51.448;6.674;2023-04-07T11:21:16;7.03;;;3.90;;
33104;SDS011;19476;51.448;6.674;2023-04-07T11:23:43;8.40;;;4.50;;
33104;SDS011;19476;51.448;6.674;2023-04-07T11:26:11;7.53;;;4.07;;
33104;SDS011;19476;51.448;6.674;2023-04-07T11:28:48;8.30;;;4.30;;
33104;SDS011;19476;51.448;6.674;2023-04-07T11:31:22;8.43;;;5.05;;
33104;SDS011;19476;51.448;6.674;2023-04-07T11:34:02;6.35;;;3.75;;
33104;SDS011;19476;51.448;6.674;2023-04-07T11:36:30;9.13;;;4.55;;
33104;SDS011;19476;51.448;6.674;2023-04-07T11:38:58;10.00;;;4.75;;
33104;SDS011;19476;51.448;6.674;2023-04-07T11:41:26;7.55;;;4.30;;
33104;SDS011;19476;51.448;6.674;2023-04-07T11:44:04;8.40;;;4.55;;
33104;SDS011;19476;51.448;6.674;2023-04-07T11:46:30;7.53;;;4.30;;
33104;SDS011;19476;51.448;6.674;2023-04-07T11:49:06;8.35;;;4.90;;
33104;SDS011;19476;51.448;6.674;2023-04-07T11:51:44;8.77;;;5.28;;
33104;SDS011;19476;51.448;6.674;2023-04-07T11:54:11;10.32;;;5.00;;
33104;SDS011;19476;51.448;6.674;2023-04-07T11:56:41;8.27;;;5.20;;
33104;SDS011;19476;51.448;6.674;2023-04-07T11:59:21;11.50;;;5.35;;
33104;SDS011;19476;51.448;6.674;2023-04-07T12:01:48;9.65;;;5.25;;
33104;SDS011;19476;51.448;6.674;2023-04-07T12:04:15;11.98;;;5.78;;
33104;SDS011;19476;51.448;6.674;2023-04-07T12:06:41;9.02;;;5.40;;
33104;SDS011;19476;51.448;6.674;2023-04-07T12:09:19;10.45;;;6.03;;
33104;SDS011;19476;51.448;6.674;2023-04-07T12:11:54;12.02;;;5.65;;
33104;SDS011;19476;51.448;6.674;2023-04-07T12:14:22;10.23;;;5.00;;
33104;SDS011;19476;51.448;6.674;2023-04-07T12:16:48;10.15;;;5.45;;
33104;SDS011;19476;51.448;6.674;2023-04-07T12:19:14;8.80;;;4.85;;
33104;SDS011;19476;51.448;6.674;2023-04-07T12:21:40;9.13;;;4.93;;
33104;SDS011;19476;51.448;6.674;2023-04-07T12:24:06;8.38;;;5.03;;
33104;SDS011;19476;51.448;6.674;2023-04-07T12:26:32;9.30;;;4.82;;
33104;SDS011;19476;51.448;6.674;2023-04-07T12:28:57;8.02;;;4.60;;
33104;SDS011;19476;51.448;6.674;2023-04-07T12:31:29;7.45;;;5.00;;
33104;SDS011;19476;51.448;6.674;2023-04-07T12:33:58;10.13;;;5.20;;
33104;SDS011;19476;51.448;6.674;2023-04-07T12:36:24;8.45;;;4.95;;
33104;SDS011;19476;51.448;6.674;2023-04-07T12:38:52;7.90;;;4.30;;
33104;SDS011;19476;51.448;6.674;2023-04-07T12:41:18;10.38;;;5.13;;
33104;SDS011;19476;51.448;6.674;2023-04-07T12:43:45;9.45;;;4.80;;
33104;SDS011;19476;51.448;6.674;2023-04-07T12:46:11;9.65;;;4.43;;
33104;SDS011;19476;51.448;6.674;2023-04-07T12:48:36;7.20;;;4.35;;
33104;SDS011;19476;51.448;6.674;2023-04-07T12:51:02;7.72;;;4.78;;
33104;SDS011;19476;51.448;6.674;2023-04-07T12:53:29;8.93;;;4.22;;
33104;SDS011;19476;51.448;6.674;2023-04-07T12:55:56;8.77;;;4.70;;
33104;SDS011;19476;51.448;6.674;2023-04-07T12:58:23;7.60;;;4.38;;
33104;SDS011;19476;51.448;6.674;2023-04-07T13:00:49;9.00;;;4.53;;
33104;SDS011;19476;51.448;6.674;2023-04-07T13:03:15;7.22;;;3.88;;
33104;SDS011;19476;51.448;6.674;2023-04-07T13:05:41;7.60;;;3.97;;
33104;SDS011;19476;51.448;6.674;2023-04-07T13:08:07;8.45;;;4.07;;
33104;SDS011;19476;51.448;6.674;2023-04-07T13:10:35;9.18;;;5.15;;
33104;SDS011;19476;51.448;6.674;2023-04-07T13:13:02;10.27;;;5.40;;
33104;SDS011;19476;51.448;6.674;2023-04-07T13:15:27;10.05;;;5.32;;
33104;SDS011;19476;51.448;6.674;2023-04-07T13:17:53;6.88;;;4.40;;
33104;SDS011;19476;51.448;6.674;2023-04-07T13:20:20;9.25;;;3.90;;
33104;SDS011;19476;51.448;6.674;2023-04-07T13:22:46;6.30;;;3.63;;
33104;SDS011;19476;51.448;6.674;2023-04-07T13:25:12;6.18;;;3.13;;
33104;SDS011;19476;51.448;6.674;2023-04-07T13:27:38;5.68;;;3.03;;
33104;SDS011;19476;51.448;6.674;2023-04-07T13:30:04;8.57;;;4.60;;
33104;SDS011;19476;51.448;6.674;2023-04-07T13:32:31;8.45;;;4.20;;
33104;SDS011;19476;51.448;6.674;2023-04-07T13:34:56;7.57;;;3.97;;
33104;SDS011;19476;51.448;6.674;2023-04-07T13:37:24;8.07;;;3.60;;
33104;SDS011;19476;51.448;6.674;2023-04-07T13:39:50;7.65;;;3.50;;
33104;SDS011;19476;51.448;6.674;2023-04-07T13:42:16;7.65;;;3.92;;
33104;SDS011;19476;51.448;6.674;2023-04-07T13:44:44;7.07;;;3.85;;
33104;SDS011;19476;51.448;6.674;2023-04-07T13:47:12;9.32;;;4.10;;
33104;SDS011;19476;51.448;6.674;2023-04-07T13:49:45;10.20;;;4.28;;
33104;SDS011;19476;51.448;6.674;2023-04-07T13:52:13;9.63;;;4.50;;
33104;SDS011;19476;51.448;6.674;2023-04-07T13:54:39;8.13;;;4.70;;
33104;SDS011;19476;51.448;6.674;2023-04-07T13:57:05;8.13;;;4.63;;
33104;SDS011;19476;51.448;6.674;2023-04-07T13:59:32;8.55;;;5.18;;
33104;SDS011;19476;51.448;6.674;2023-04-07T14:01:58;7.93;;;4.43;;
33104;SDS011;19476;51.448;6.674;2023-04-07T14:04:24;10.38;;;4.60;;
33104;SDS011;19476;51.448;6.674;2023-04-07T14:06:49;10.73;;;4.90;;
33104;SDS011;19476;51.448;6.674;2023-04-07T14:09:15;9.73;;;5.03;;
33104;SDS011;19476;51.448;6.674;2023-04-07T14:11:41;9.70;;;4.43;;
33104;SDS011;19476;51.448;6.674;2023-04-07T14:14:07;8.82;;;5.03;;
33104;SDS011;19476;51.448;6.674;2023-04-07T14:16:33;11.30;;;5.18;;
33104;SDS011;19476;51.448;6.674;2023-04-07T14:18:59;11.55;;;5.65;;
33104;SDS011;19476;51.448;6.674;2023-04-07T14:21:25;8.55;;;5.63;;
33104;SDS011;19476;51.448;6.674;2023-04-07T14:23:52;13.75;;;7.90;;
33104;SDS011;19476;51.448;6.674;2023-04-07T14:26:18;14.85;;;6.32;;
33104;SDS011;19476;51.448;6.674;2023-04-07T14:28:46;12.13;;;6.47;;
33104;SDS011;19476;51.448;6.674;2023-04-07T14:31:13;11.38;;;6.00;;
33104;SDS011;19476;51.448;6.674;2023-04-07T14:33:41;10.00;;;5.20;;
33104;SDS011;19476;51.448;6.674;2023-04-07T14:36:07;10.73;;;5.63;;
33104;SDS011;19476;51.448;6.674;2023-04-07T14:38:32;8.65;;;5.22;;
33104;SDS011;19476;51.448;6.674;2023-04-07T14:40:58;10.18;;;5.55;;
33104;SDS011;19476;51.448;6.674;2023-04-07T14:43:25;9.57;;;5.35;;
33104;SDS011;19476;51.448;6.674;2023-04-07T14:45:52;10.27;;;5.72;;
33104;SDS011;19476;51.448;6.674;2023-04-07T14:48:17;9.13;;;5.13;;
33104;SDS011;19476;51.448;6.674;2023-04-07T14:50:43;17.25;;;5.90;;
33104;SDS011;19476;51.448;6.674;2023-04-07T14:53:09;10.98;;;5.82;;
33104;SDS011;19476;51.448;6.674;2023-04-07T14:55:35;12.13;;;5.97;;
33104;SDS011;19476;51.448;6.674;2023-04-07T14:58:01;9.85;;;6.68;;
33104;SDS011;19476;51.448;6.674;2023-04-07T15:07:11;8.88;;;5.15;;
33104;SDS011;19476;51.448;6.674;2023-04-07T15:13:37;7.50;;;4.88;;
33104;SDS011;19476;51.448;6.674;2023-04-07T15:18:33;11.40;;;4.95;;
33104;SDS011;19476;51.448;6.674;2023-04-07T15:20:59;7.95;;;5.20;;
33104;SDS011;19476;51.448;6.674;2023-04-07T15:23:25;9.10;;;4.88;;
33104;SDS011;19476;51.448;6.674;2023-04-07T15:25:51;7.55;;;4.50;;